createdAt,value
2022-11-01T00:01:52.379Z,95013.38
2022-11-01T00:05:02.154Z,95005.47
2022-11-01T00:08:10.331Z,95007.13
2022-11-01T00:11:19.690Z,95002.00
2022-11-01T00:14:28.188Z,95006.75
2022-11-01T00:17:37.033Z,95014.91
2022-11-01T00:20:46.955Z,95011.91
2022-11-01T00:23:55.512Z,95010.38
2022-11-01T00:27:03.793Z,95017.50
2022-11-01T00:30:12.832Z,95017.94
2022-11-01T00:33:21.070Z,95018.88
2022-11-01T00:36:30.890Z,95058.78
2022-11-01T00:39:39.145Z,95055.97
2022-11-01T00:42:47.332Z,95071.84
2022-11-01T00:45:55.586Z,95064.44
2022-11-01T00:49:03.958Z,95061.63
2022-11-01T00:52:13.492Z,95063.97
2022-11-01T00:55:21.856Z,95065.06
2022-11-01T00:58:30.735Z,95060.38
2022-11-01T01:01:39.144Z,95055.03
2022-11-01T01:04:48.845Z,95052.97
2022-11-01T01:07:58.720Z,95056.78
2022-11-01T01:11:07.025Z,95056.53
2022-11-01T01:14:15.247Z,95053.66
2022-11-01T01:17:23.535Z,95034.38
2022-11-01T01:20:32.046Z,95049.28
2022-11-01T01:23:41.669Z,95046.44
2022-11-01T01:26:49.929Z,95048.28
2022-11-01T01:29:58.135Z,95045.81
2022-11-01T01:33:06.379Z,95049.03
2022-11-01T01:36:16.482Z,95045.38
2022-11-01T01:39:26.041Z,95037.50
2022-11-01T01:42:38.002Z,95041.72
2022-11-01T01:45:46.502Z,95049.94
2022-11-01T01:49:00.168Z,95031.66
2022-11-01T01:52:09.442Z,95033.56
2022-11-01T01:55:28.258Z,95029.72
2022-11-01T01:58:43.214Z,95025.44
2022-11-01T02:01:51.605Z,95033.59
2022-11-01T02:05:09.730Z,95030.72
2022-11-01T02:08:27.792Z,95034.19
2022-11-01T02:11:37.569Z,95042.31
2022-11-01T02:14:46.977Z,95040.59
2022-11-01T02:18:14.302Z,95035.50
2022-11-01T02:21:51.373Z,95043.75
2022-11-01T02:25:32.154Z,95040.81
2022-11-01T02:29:09.939Z,95042.72
2022-11-01T02:32:26.941Z,95043.69
2022-11-01T02:35:49.218Z,95046.78
2022-11-01T02:39:04.385Z,95051.38
2022-11-01T02:42:21.286Z,95042.22
2022-11-01T02:45:37.913Z,95048.34
2022-11-01T02:48:49.293Z,95052.66
2022-11-01T02:52:00.276Z,95048.56
2022-11-01T02:55:29.874Z,95047.69
2022-11-01T02:58:39.231Z,95044.34
2022-11-01T03:01:54.396Z,95055.31
2022-11-01T03:05:04.288Z,95048.53
2022-11-01T03:08:18.038Z,95046.75
2022-11-01T03:11:37.434Z,95045.28
2022-11-01T03:14:57.035Z,95048.75
2022-11-01T03:18:14.312Z,95051.50
2022-11-01T03:21:29.421Z,95051.16
2022-11-01T03:24:49.598Z,95053.16
2022-11-01T03:28:01.544Z,95055.41
2022-11-01T03:31:15.094Z,95056.81
2022-11-01T03:34:26.299Z,95053.25
2022-11-01T03:37:42.202Z,95060.22
2022-11-01T03:40:57.420Z,95059.44
2022-11-01T03:44:06.574Z,95058.09
2022-11-01T03:47:16.326Z,95066.34
2022-11-01T03:50:27.569Z,95072.44
2022-11-01T03:53:37.132Z,95085.59
2022-11-01T03:56:45.996Z,95086.22
2022-11-01T03:59:54.372Z,95090.81
2022-11-01T04:03:03.177Z,95097.50
2022-11-01T04:06:12.145Z,95088.44
2022-11-01T04:09:21.925Z,95089.72
2022-11-01T04:12:30.208Z,95091.75
2022-11-01T04:16:01.470Z,95101.28
2022-11-01T04:19:27.183Z,95097.72
2022-11-01T04:22:37.972Z,95095.44
2022-11-01T04:25:48.359Z,95105.00
2022-11-01T04:28:59.355Z,95103.72
2022-11-01T04:32:08.115Z,95114.84
2022-11-01T04:35:16.563Z,95116.00
2022-11-01T04:38:24.980Z,95119.28
2022-11-01T04:41:34.886Z,95110.28
2022-11-01T04:44:43.052Z,95115.66
2022-11-01T04:48:03.834Z,95110.94
2022-11-01T04:51:12.786Z,95104.28
2022-11-01T04:54:21.011Z,95109.88
2022-11-01T04:57:30.633Z,95113.59
2022-11-01T05:00:39.469Z,95118.22
2022-11-01T05:03:49.762Z,95117.69
2022-11-01T05:06:59.878Z,95138.22
2022-11-01T05:10:10.315Z,95144.91
2022-11-01T05:13:19.894Z,95151.88
2022-11-01T05:16:28.174Z,95165.13
2022-11-01T05:19:36.404Z,95159.34
2022-11-01T05:22:44.606Z,95155.72
2022-11-01T05:25:52.941Z,95155.00
2022-11-01T05:29:09.134Z,95147.72
2022-11-01T05:32:26.655Z,95163.91
2022-11-01T05:35:36.578Z,95173.63
2022-11-01T05:38:45.051Z,95162.53
2022-11-01T05:41:55.575Z,95165.31
2022-11-01T05:45:10.916Z,95167.28
2022-11-01T05:48:19.311Z,95173.06
2022-11-01T05:51:27.734Z,95179.81
2022-11-01T05:54:36.538Z,95182.75
2022-11-01T05:57:45.181Z,95191.75
2022-11-01T06:01:00.670Z,95192.41
2022-11-01T06:04:09.265Z,95190.47
2022-11-01T06:07:17.500Z,95196.88
2022-11-01T06:10:26.104Z,95199.06
2022-11-01T06:13:35.241Z,95211.94
2022-11-01T06:16:45.913Z,95226.19
2022-11-01T06:19:54.209Z,95216.78
2022-11-01T06:23:03.413Z,95219.91
2022-11-01T06:26:11.653Z,95219.84
2022-11-01T06:29:20.603Z,95221.63
2022-11-01T06:32:30.462Z,95228.00
2022-11-01T06:35:42.394Z,95233.09
2022-11-01T06:38:51.133Z,95239.53
2022-11-01T06:42:00.010Z,95246.94
2022-11-01T06:45:10.680Z,95263.66
2022-11-01T06:48:21.448Z,95267.88
2022-11-01T06:51:30.345Z,95275.59
2022-11-01T06:54:39.028Z,95286.31
2022-11-01T06:57:56.061Z,95287.13
2022-11-01T07:01:06.644Z,95306.81
2022-11-01T07:04:16.572Z,95305.53
2022-11-01T07:07:24.905Z,95304.16
2022-11-01T07:10:33.578Z,95313.94
2022-11-01T07:13:41.803Z,95309.53
2022-11-01T07:16:50.061Z,95315.75
2022-11-01T07:19:59.871Z,95327.16
2022-11-01T07:23:12.487Z,95336.84
2022-11-01T07:26:20.954Z,95339.09
2022-11-01T07:29:32.216Z,95342.56
2022-11-01T07:32:40.668Z,95344.38
2022-11-01T07:35:52.424Z,95347.09
2022-11-01T07:39:01.152Z,95357.22
2022-11-01T07:42:09.385Z,95364.00
2022-11-01T07:45:18.022Z,95366.50
2022-11-01T07:48:26.307Z,95364.69
2022-11-01T07:51:36.150Z,95366.72
2022-11-01T07:54:44.308Z,95384.84
2022-11-01T07:57:52.606Z,95373.72
2022-11-01T08:01:02.206Z,95376.19
2022-11-01T08:04:10.527Z,95385.03
2022-11-01T08:07:20.355Z,95388.94
2022-11-01T08:10:30.036Z,95388.94
2022-11-01T08:13:38.816Z,95390.63
2022-11-01T08:16:55.803Z,95392.69
2022-11-01T08:20:09.335Z,95386.00
2022-11-01T08:23:18.974Z,95386.69
2022-11-01T08:26:28.313Z,95390.59
2022-11-01T08:29:37.667Z,95389.53
2022-11-01T08:32:46.370Z,95392.22
2022-11-01T08:35:54.515Z,95391.69
2022-11-01T08:39:04.312Z,95393.81
2022-11-01T08:42:12.902Z,95398.22
2022-11-01T08:45:21.237Z,95402.84
2022-11-01T08:48:31.152Z,95407.41
2022-11-01T08:51:41.230Z,95405.28
2022-11-01T08:54:51.017Z,95391.81
2022-11-01T08:58:01.057Z,95392.28
2022-11-01T09:01:10.287Z,95404.94
2022-11-01T09:04:19.290Z,95399.91
2022-11-01T09:07:27.847Z,95396.38
2022-11-01T09:10:37.584Z,95400.41
2022-11-01T09:13:46.433Z,95397.06
2022-11-01T09:16:54.879Z,95393.59
2022-11-01T09:20:04.227Z,95391.56
2022-11-01T09:23:12.475Z,95385.97
2022-11-01T09:26:22.555Z,95392.44
2022-11-01T09:29:30.977Z,95383.59
2022-11-01T09:32:39.897Z,95387.94
2022-11-01T09:35:56.697Z,95377.63
2022-11-01T09:39:07.833Z,95383.34
2022-11-01T09:42:26.341Z,95374.81
2022-11-01T09:45:38.125Z,95381.50
2022-11-01T09:48:47.741Z,95390.22
2022-11-01T09:51:57.487Z,95383.56
2022-11-01T09:55:14.864Z,95383.47
2022-11-01T09:58:37.565Z,95382.53
2022-11-01T10:02:07.237Z,95389.75
2022-11-01T10:05:34.062Z,95397.00
2022-11-01T10:09:00.352Z,95389.03
2022-11-01T10:12:37.354Z,95382.88
2022-11-01T10:16:02.201Z,95398.06
2022-11-01T10:19:15.324Z,95398.09
2022-11-01T10:22:33.289Z,95383.00
2022-11-01T10:25:51.387Z,95392.34
2022-11-01T10:29:09.006Z,95384.19
2022-11-01T10:32:33.921Z,95387.69
2022-11-01T10:35:46.751Z,95390.63
2022-11-01T10:39:52.555Z,95387.56
2022-11-01T10:42:36.372Z,95381.56
2022-11-01T10:45:49.176Z,95368.78
2022-11-01T10:49:05.797Z,95378.50
2022-11-01T10:52:19.797Z,95380.13
2022-11-01T10:55:40.162Z,95374.22
2022-11-01T10:59:00.600Z,95375.84
2022-11-01T11:02:19.209Z,95376.91
2022-11-01T11:05:33.004Z,95371.88
2022-11-01T11:08:46.544Z,95366.56
2022-11-01T11:12:00.907Z,95374.06
2022-11-01T11:15:21.156Z,95372.78
2022-11-01T11:18:33.661Z,95370.53
2022-11-01T11:21:45.612Z,95368.03
2022-11-01T11:25:03.487Z,95370.47
2022-11-01T11:28:27.845Z,95369.88
2022-11-01T11:31:36.447Z,95362.66
2022-11-01T11:34:53.056Z,95355.47
2022-11-01T11:38:07.424Z,95355.38
2022-11-01T11:41:30.677Z,95366.31
2022-11-01T11:44:46.975Z,95371.22
2022-11-01T11:47:58.541Z,95368.78
2022-11-01T11:51:08.994Z,95364.47
2022-11-01T11:54:26.055Z,95357.56
2022-11-01T11:57:34.611Z,95371.56
2022-11-01T12:00:50.057Z,95367.00
2022-11-01T12:04:09.061Z,95365.22
2022-11-01T12:07:32.740Z,95368.72
2022-11-01T12:10:47.583Z,95369.06
2022-11-01T12:14:04.298Z,95363.53
2022-11-01T12:17:35.253Z,95374.22
2022-11-01T12:20:44.451Z,95372.44
2022-11-01T12:23:58.331Z,95377.19
2022-11-01T12:27:19.498Z,95379.44
2022-11-01T12:30:33.733Z,95376.38
2022-11-01T12:33:50.462Z,95370.56
2022-11-01T12:37:07.563Z,95376.69
2022-11-01T12:40:22.558Z,95378.06
2022-11-01T12:43:57.535Z,95383.13
2022-11-01T12:47:19.053Z,95373.84
2022-11-01T12:50:38.052Z,95377.09
2022-11-01T12:53:54.826Z,95370.91
2022-11-01T12:57:03.242Z,95369.78
2022-11-01T13:00:16.637Z,95370.19
2022-11-01T13:03:44.196Z,95369.25
2022-11-01T13:07:30.414Z,95373.66
2022-11-01T13:10:44.250Z,95363.69
2022-11-01T13:14:22.400Z,95377.00
2022-11-01T13:17:44.732Z,95373.84
2022-11-01T13:21:07.596Z,95373.72
2022-11-01T13:24:39.357Z,95381.72
2022-11-01T13:28:04.348Z,95377.06
2022-11-01T13:31:42.944Z,95374.50
2022-11-01T13:35:36.975Z,95373.59
2022-11-01T13:38:55.066Z,95374.16
2022-11-01T13:42:11.158Z,95375.91
2022-11-01T13:46:02.536Z,95380.00
2022-11-01T13:49:58.696Z,95380.91
2022-11-01T13:53:21.696Z,95374.75
2022-11-01T13:56:37.010Z,95380.53
2022-11-01T13:59:55.564Z,95378.06
2022-11-01T14:03:22.260Z,95373.06
2022-11-01T14:06:38.132Z,95379.84
2022-11-01T14:09:50.057Z,95378.38
2022-11-01T14:13:16.382Z,95394.94
2022-11-01T14:16:25.116Z,95389.13
2022-11-01T14:19:33.564Z,95390.91
2022-11-01T14:22:43.573Z,95385.44
2022-11-01T14:26:38.483Z,95386.13
2022-11-01T14:29:51.644Z,95387.91
2022-11-01T14:33:04.221Z,95386.78
2022-11-01T14:36:15.856Z,95383.75
2022-11-01T14:39:37.483Z,95385.81
2022-11-01T14:42:51.480Z,95392.84
2022-11-01T14:46:04.138Z,95398.69
2022-11-01T14:49:29.521Z,95393.28
2022-11-01T14:52:46.572Z,95395.38
2022-11-01T14:56:13.892Z,95398.34
2022-11-01T14:59:27.243Z,95398.22
2022-11-01T15:02:36.098Z,95396.75
2022-11-01T15:05:50.918Z,95404.75
2022-11-01T15:09:00.493Z,95402.56
2022-11-01T15:12:12.446Z,95395.41
2022-11-01T15:15:26.497Z,95401.78
2022-11-01T15:18:35.625Z,95406.91
2022-11-01T15:21:47.613Z,95403.22
2022-11-01T15:25:01.459Z,95409.69
2022-11-01T15:28:20.241Z,95404.59
2022-11-01T15:31:31.889Z,95407.38
2022-11-01T15:34:40.261Z,95411.16
2022-11-01T15:37:53.237Z,95412.59
2022-11-01T15:41:22.317Z,95412.97
2022-11-01T15:44:31.630Z,95420.31
2022-11-01T15:47:47.514Z,95411.97
2022-11-01T15:51:02.165Z,95414.53
2022-11-01T15:54:35.497Z,95419.31
2022-11-01T15:57:56.192Z,95420.19
2022-11-01T16:01:13.180Z,95423.94
2022-11-01T16:04:26.328Z,95421.09
2022-11-01T16:07:37.493Z,95426.06
2022-11-01T16:10:46.367Z,95423.22
2022-11-01T16:14:01.873Z,95438.88
2022-11-01T16:17:25.796Z,95438.47
2022-11-01T16:20:40.969Z,95439.13
2022-11-01T16:23:58.220Z,95442.25
2022-11-01T16:27:08.716Z,95442.06
2022-11-01T16:30:49.957Z,95441.66
2022-11-01T16:34:03.134Z,95451.75
2022-11-01T16:37:22.326Z,95456.09
2022-11-01T16:40:31.863Z,95455.84
2022-11-01T16:43:40.411Z,95461.03
2022-11-01T16:46:48.858Z,95468.69
2022-11-01T16:49:57.078Z,95467.84
2022-11-01T16:53:11.472Z,95464.78
2022-11-01T16:56:36.518Z,95475.28
2022-11-01T16:59:46.544Z,95478.22
2022-11-01T17:03:00.270Z,95483.78
2022-11-01T17:06:09.027Z,95491.38
2022-11-01T17:09:24.725Z,95496.53
2022-11-01T17:12:35.786Z,95504.16
2022-11-01T17:15:48.604Z,95502.75
2022-11-01T17:19:01.889Z,95509.13
2022-11-01T17:22:19.124Z,95508.50
2022-11-01T17:25:31.555Z,95507.88
2022-11-01T17:28:39.989Z,95513.22
2022-11-01T17:31:48.287Z,95512.63
2022-11-01T17:34:56.556Z,95515.09
2022-11-01T17:38:06.866Z,95510.78
2022-11-01T17:41:19.856Z,95526.44
2022-11-01T17:44:28.319Z,95524.75
2022-11-01T17:47:36.548Z,95529.94
2022-11-01T17:50:45.311Z,95526.03
2022-11-01T17:53:57.257Z,95518.00
2022-11-01T17:57:06.824Z,95526.44
2022-11-01T18:00:16.070Z,95529.50
2022-11-01T18:03:26.288Z,95532.59
2022-11-01T18:06:34.486Z,95536.91
2022-11-01T18:09:42.859Z,95541.44
2022-11-01T18:13:14.293Z,95533.00
2022-11-01T18:16:33.715Z,95539.00
2022-11-01T18:19:55.824Z,95529.31
2022-11-01T18:23:09.662Z,95532.63
2022-11-01T18:26:22.894Z,95528.47
2022-11-01T18:29:35.265Z,95529.94
2022-11-01T18:32:57.466Z,95523.94
2022-11-01T18:36:15.824Z,95521.06
2022-11-01T18:39:36.503Z,95514.03
2022-11-01T18:42:48.042Z,95520.25
2022-11-01T18:46:23.293Z,95521.25
2022-11-01T18:49:29.171Z,95524.75
2022-11-01T18:52:37.862Z,95532.41
2022-11-01T18:55:49.904Z,95533.44
2022-11-01T18:59:00.338Z,95528.47
2022-11-01T19:02:19.460Z,95526.03
2022-11-01T19:05:28.428Z,95527.66
2022-11-01T19:08:36.726Z,95520.66
2022-11-01T19:11:48.922Z,95530.75
2022-11-01T19:15:03.105Z,95527.84
2022-11-01T19:18:20.988Z,95535.69
2022-11-01T19:21:36.136Z,95526.84
2022-11-01T19:24:45.744Z,95531.38
2022-11-01T19:27:57.827Z,95527.03
2022-11-01T19:31:21.618Z,95535.06
2022-11-01T19:34:36.991Z,95527.88
2022-11-01T19:37:47.276Z,95540.63
2022-11-01T19:40:56.709Z,95527.25
2022-11-01T19:44:16.581Z,95531.78
2022-11-01T19:47:40.332Z,95525.78
2022-11-01T19:50:50.839Z,95528.47
2022-11-01T19:54:01.774Z,95525.78
2022-11-01T19:57:28.067Z,95522.28
2022-11-01T20:00:39.928Z,95515.53
2022-11-01T20:03:52.551Z,95530.75
2022-11-01T20:07:13.740Z,95529.72
2022-11-01T20:10:21.889Z,95528.28
2022-11-01T20:13:30.187Z,95543.28
2022-11-01T20:16:38.674Z,95548.19
2022-11-01T20:19:47.062Z,95547.09
2022-11-01T20:23:20.281Z,95539.47
2022-11-01T20:26:25.857Z,95559.25
2022-11-01T20:29:34.660Z,95554.44
2022-11-01T20:32:43.298Z,95556.44
2022-11-01T20:35:52.837Z,95563.13
2022-11-01T20:39:03.172Z,95563.44
2022-11-01T20:42:11.672Z,95566.31
2022-11-01T20:45:20.209Z,95562.97
2022-11-01T20:48:28.903Z,95566.28
2022-11-01T20:51:37.616Z,95559.41
2022-11-01T20:54:47.589Z,95562.06
2022-11-01T20:57:56.249Z,95566.69
2022-11-01T21:01:05.675Z,95563.13
2022-11-01T21:04:14.584Z,95562.03
2022-11-01T21:07:23.026Z,95567.22
2022-11-01T21:10:36.128Z,95568.38
2022-11-01T21:13:46.770Z,95565.75
2022-11-01T21:16:58.985Z,95569.97
2022-11-01T21:20:23.949Z,95571.06
2022-11-01T21:23:35.851Z,95574.59
2022-11-01T21:26:45.875Z,95575.22
2022-11-01T21:30:02.359Z,95575.13
2022-11-01T21:33:32.680Z,95575.47
2022-11-01T21:36:43.483Z,95572.94
2022-11-01T21:40:04.292Z,95577.84
2022-11-01T21:43:31.725Z,95572.63
2022-11-01T21:46:40.078Z,95574.66
2022-11-01T21:49:49.059Z,95571.09
2022-11-01T21:52:57.414Z,95572.56
2022-11-01T21:56:06.525Z,95566.53
2022-11-01T21:59:16.519Z,95564.28
2022-11-01T22:02:28.201Z,95561.69
2022-11-01T22:05:36.827Z,95570.78
2022-11-01T22:08:45.133Z,95558.16
2022-11-01T22:11:53.929Z,95562.41
2022-11-01T22:15:03.732Z,95560.16
2022-11-01T22:18:12.080Z,95555.97
2022-11-01T22:21:20.343Z,95551.31
2022-11-01T22:24:28.575Z,95553.63
2022-11-01T22:27:36.812Z,95550.44
2022-11-01T22:30:46.397Z,95555.38
2022-11-01T22:33:56.802Z,95560.28
2022-11-01T22:37:13.576Z,95552.38
2022-11-01T22:40:22.209Z,95549.06
2022-11-01T22:43:30.903Z,95545.16
2022-11-01T22:46:50.270Z,95556.28
2022-11-01T22:50:04.143Z,95554.16
2022-11-01T22:53:16.107Z,95551.78
2022-11-01T22:56:24.734Z,95554.81
2022-11-01T22:59:36.685Z,95556.22
2022-11-01T23:02:47.436Z,95556.44
2022-11-01T23:06:00.074Z,95558.72
2022-11-01T23:09:16.604Z,95560.84
2022-11-01T23:12:43.009Z,95573.22
2022-11-01T23:15:52.672Z,95576.16
2022-11-01T23:19:08.462Z,95568.81
2022-11-01T23:22:20.860Z,95570.84
2022-11-01T23:25:30.282Z,95574.34
2022-11-01T23:28:43.998Z,95570.97
2022-11-01T23:31:52.129Z,95572.22
2022-11-01T23:35:13.470Z,95577.97
2022-11-01T23:38:35.620Z,95577.72
2022-11-01T23:41:47.599Z,95581.94
2022-11-01T23:44:57.803Z,95580.00
2022-11-01T23:48:09.099Z,95581.16
2022-11-01T23:51:22.377Z,95591.91
2022-11-01T23:54:39.880Z,95588.31
2022-11-01T23:57:48.123Z,95593.34
